createdAt,value
2023-05-08T00:01:13.184Z,101304.81
2023-05-08T00:04:20.805Z,101309.59
2023-05-08T00:07:26.945Z,101312.13
2023-05-08T00:10:32.346Z,101305.19
2023-05-08T00:13:38.270Z,101310.78
2023-05-08T00:16:43.529Z,101307.91
2023-05-08T00:19:49.234Z,101313.25
2023-05-08T00:22:54.948Z,101303.31
2023-05-08T00:26:00.822Z,101300.75
2023-05-08T00:29:06.900Z,101287.22
2023-05-08T00:32:13.015Z,101284.16
2023-05-08T00:35:18.720Z,101281.31
2023-05-08T00:38:24.312Z,101285.31
2023-05-08T00:41:29.804Z,101276.16
2023-05-08T00:44:35.807Z,101277.66
2023-05-08T00:47:41.555Z,101285.81
2023-05-08T00:50:47.304Z,101291.53
2023-05-08T00:53:53.320Z,101286.94
2023-05-08T00:57:00.137Z,101291.22
2023-05-08T01:00:06.138Z,101289.50
2023-05-08T01:03:14.326Z,101280.91
2023-05-08T01:06:19.847Z,101286.94
2023-05-08T01:09:25.817Z,101284.66
2023-05-08T01:12:38.630Z,101287.63
2023-05-08T01:15:52.174Z,101281.91
2023-05-08T01:19:35.534Z,101293.28
2023-05-08T01:22:53.253Z,101295.16
2023-05-08T01:26:26.002Z,101293.81
2023-05-08T01:30:00.346Z,101310.22
2023-05-08T01:33:15.344Z,101312.09
2023-05-08T01:36:47.693Z,101310.91
2023-05-08T01:40:03.505Z,101299.59
2023-05-08T01:43:25.755Z,101289.81
2023-05-08T01:46:34.068Z,101286.78
2023-05-08T01:49:46.778Z,101289.78
2023-05-08T01:52:59.550Z,101290.31
2023-05-08T01:56:12.232Z,101290.31
2023-05-08T01:59:21.669Z,101290.47
2023-05-08T02:02:30.700Z,101277.06
2023-05-08T02:05:40.830Z,101277.88
2023-05-08T02:08:47.968Z,101275.97
2023-05-08T02:11:55.206Z,101277.16
2023-05-08T02:15:03.501Z,101275.69
2023-05-08T02:18:10.375Z,101276.84
2023-05-08T02:21:17.960Z,101282.75
2023-05-08T02:24:25.110Z,101273.94
2023-05-08T02:27:31.781Z,101275.00
2023-05-08T02:30:38.904Z,101284.66
2023-05-08T02:33:47.204Z,101278.50
2023-05-08T02:36:54.932Z,101279.28
2023-05-08T02:40:04.378Z,101290.03
2023-05-08T02:43:10.581Z,101295.66
2023-05-08T02:46:21.551Z,101310.16
2023-05-08T02:49:27.333Z,101314.53
2023-05-08T02:52:40.908Z,101320.25
2023-05-08T02:55:51.262Z,101326.94
2023-05-08T02:59:12.964Z,101323.53
2023-05-08T03:02:24.380Z,101315.91
2023-05-08T03:05:33.333Z,101321.09
2023-05-08T03:08:41.081Z,101324.06
2023-05-08T03:11:50.344Z,101327.59
2023-05-08T03:15:13.068Z,101341.34
2023-05-08T03:18:21.943Z,101341.72
2023-05-08T03:21:30.948Z,101340.44
2023-05-08T03:24:40.566Z,101340.16
2023-05-08T03:27:48.589Z,101337.50
2023-05-08T03:30:57.540Z,101344.50
2023-05-08T03:34:04.961Z,101344.66
2023-05-08T03:37:11.036Z,101350.06
2023-05-08T03:40:17.257Z,101352.72
2023-05-08T03:43:24.129Z,101355.91
2023-05-08T03:46:32.206Z,101350.91
2023-05-08T03:49:39.518Z,101361.44
2023-05-08T03:52:46.122Z,101367.72
2023-05-08T03:55:52.178Z,101366.88
2023-05-08T03:59:17.386Z,101377.59
2023-05-08T04:02:34.841Z,101382.34
2023-05-08T04:05:53.919Z,101380.78
2023-05-08T04:09:13.729Z,101385.41
2023-05-08T04:12:26.848Z,101398.88
2023-05-08T04:15:37.224Z,101398.34
2023-05-08T04:18:48.129Z,101403.16
2023-05-08T04:21:59.475Z,101414.13
2023-05-08T04:25:08.278Z,101423.56
2023-05-08T04:28:16.230Z,101428.34
2023-05-08T04:31:24.917Z,101431.81
2023-05-08T04:34:30.801Z,101444.72
2023-05-08T04:37:36.713Z,101435.06
2023-05-08T04:40:42.417Z,101449.13
2023-05-08T04:43:50.923Z,101443.75
2023-05-08T04:46:57.082Z,101463.22
2023-05-08T04:50:04.831Z,101462.91
2023-05-08T04:53:11.922Z,101452.38
2023-05-08T04:56:19.557Z,101469.53
2023-05-08T04:59:25.446Z,101473.16
2023-05-08T05:02:31.378Z,101465.75
2023-05-08T05:05:38.804Z,101470.63
2023-05-08T05:08:45.935Z,101471.34
2023-05-08T05:11:52.121Z,101466.34
2023-05-08T05:14:58.078Z,101466.94
2023-05-08T05:18:09.081Z,101474.28
2023-05-08T05:21:14.815Z,101475.25
2023-05-08T05:24:20.610Z,101479.16
2023-05-08T05:27:25.931Z,101479.28
2023-05-08T05:30:31.211Z,101486.38
2023-05-08T05:33:36.546Z,101488.00
2023-05-08T05:36:42.438Z,101476.13
2023-05-08T05:39:48.429Z,101481.44
2023-05-08T05:42:54.731Z,101482.03
2023-05-08T05:46:08.018Z,101473.13
2023-05-08T05:49:14.132Z,101477.72
2023-05-08T05:52:19.589Z,101480.16
2023-05-08T05:55:25.708Z,101480.00
2023-05-08T05:58:31.603Z,101470.91
2023-05-08T06:01:37.513Z,101472.94
2023-05-08T06:04:43.135Z,101474.38
2023-05-08T06:07:48.990Z,101471.97
2023-05-08T06:10:54.566Z,101475.56
2023-05-08T06:14:00.065Z,101481.69
2023-05-08T06:17:06.120Z,101482.81
2023-05-08T06:20:12.320Z,101483.38
2023-05-08T06:23:18.269Z,101484.78
2023-05-08T06:26:24.488Z,101482.41
2023-05-08T06:29:30.374Z,101484.06
2023-05-08T06:32:36.996Z,101485.41
2023-05-08T06:35:47.782Z,101494.63
2023-05-08T06:38:53.537Z,101491.66
2023-05-08T06:41:59.333Z,101496.31
2023-05-08T06:45:10.289Z,101494.69
2023-05-08T06:48:15.677Z,101503.56
2023-05-08T06:51:23.377Z,101500.66
2023-05-08T06:54:29.371Z,101503.25
2023-05-08T06:57:35.380Z,101504.66
2023-05-08T07:00:42.356Z,101501.09
2023-05-08T07:03:48.608Z,101490.03
2023-05-08T07:06:54.169Z,101508.19
2023-05-08T07:09:59.461Z,101503.09
2023-05-08T07:13:04.780Z,101508.50
2023-05-08T07:16:11.279Z,101514.22
2023-05-08T07:19:16.651Z,101508.59
2023-05-08T07:22:22.260Z,101514.50
2023-05-08T07:25:27.847Z,101510.97
2023-05-08T07:28:33.322Z,101511.00
2023-05-08T07:31:41.781Z,101520.41
2023-05-08T07:34:47.189Z,101513.91
2023-05-08T07:37:53.036Z,101524.19
2023-05-08T07:41:00.079Z,101526.13
2023-05-08T07:44:05.517Z,101512.13
2023-05-08T07:47:10.722Z,101523.50
2023-05-08T07:50:16.008Z,101531.31
2023-05-08T07:53:21.457Z,101521.09
2023-05-08T07:56:28.794Z,101525.13
2023-05-08T07:59:34.485Z,101519.00
2023-05-08T08:02:40.338Z,101514.00
2023-05-08T08:05:46.215Z,101516.56
2023-05-08T08:08:52.687Z,101515.16
2023-05-08T08:11:58.581Z,101519.25
2023-05-08T08:15:04.079Z,101522.50
2023-05-08T08:18:09.931Z,101517.69
2023-05-08T08:21:15.969Z,101519.03
2023-05-08T08:24:21.474Z,101518.69
2023-05-08T08:27:27.047Z,101516.78
2023-05-08T08:30:32.856Z,101519.56
2023-05-08T08:33:38.723Z,101521.72
2023-05-08T08:36:44.030Z,101516.00
2023-05-08T08:39:49.603Z,101518.22
2023-05-08T08:42:55.739Z,101526.72
2023-05-08T08:46:13.635Z,101528.13
2023-05-08T08:49:26.088Z,101523.53
2023-05-08T08:52:32.726Z,101527.78
2023-05-08T08:55:44.193Z,101538.03
2023-05-08T08:58:57.385Z,101537.59
2023-05-08T09:02:17.894Z,101542.41
2023-05-08T09:05:24.509Z,101535.50
2023-05-08T09:08:30.230Z,101541.75
2023-05-08T09:11:37.884Z,101532.56
2023-05-08T09:14:43.498Z,101538.22
2023-05-08T09:17:49.309Z,101541.75
2023-05-08T09:20:55.122Z,101544.47
2023-05-08T09:24:02.953Z,101544.75
2023-05-08T09:27:22.694Z,101533.22
2023-05-08T09:30:28.436Z,101543.38
2023-05-08T09:33:44.194Z,101542.53
2023-05-08T09:36:50.456Z,101544.75
2023-05-08T09:40:17.679Z,101543.13
2023-05-08T09:43:23.448Z,101547.97
2023-05-08T09:46:29.628Z,101553.91
2023-05-08T09:49:35.052Z,101548.53
2023-05-08T09:52:47.707Z,101556.34
2023-05-08T09:55:53.708Z,101559.91
2023-05-08T09:58:59.592Z,101553.75
2023-05-08T10:02:12.552Z,101558.78
2023-05-08T10:05:30.275Z,101555.41
2023-05-08T10:08:35.839Z,101548.00
2023-05-08T10:11:52.218Z,101543.72
2023-05-08T10:14:58.122Z,101546.97
2023-05-08T10:18:06.331Z,101543.75
2023-05-08T10:21:13.707Z,101550.28
2023-05-08T10:24:26.856Z,101543.75
2023-05-08T10:27:38.789Z,101538.84
2023-05-08T10:30:49.437Z,101536.13
2023-05-08T10:34:02.523Z,101537.53
2023-05-08T10:37:11.594Z,101544.03
2023-05-08T10:40:18.979Z,101543.81
2023-05-08T10:43:29.897Z,101536.25
2023-05-08T10:46:42.805Z,101539.75
2023-05-08T10:50:20.892Z,101547.59
2023-05-08T10:53:35.121Z,101547.31
2023-05-08T10:56:41.073Z,101547.81
2023-05-08T10:59:47.583Z,101546.97
2023-05-08T11:03:07.183Z,101559.16
2023-05-08T11:06:19.336Z,101556.22
2023-05-08T11:09:31.224Z,101546.53
2023-05-08T11:12:38.356Z,101548.44
2023-05-08T11:15:50.880Z,101538.97
2023-05-08T11:19:19.296Z,101541.44
2023-05-08T11:22:33.278Z,101540.06
2023-05-08T11:25:43.975Z,101550.81
2023-05-08T11:28:57.385Z,101546.03
2023-05-08T11:32:03.317Z,101554.59
2023-05-08T11:35:13.907Z,101545.91
2023-05-08T11:38:28.381Z,101547.28
2023-05-08T11:41:34.310Z,101542.44
2023-05-08T11:44:39.911Z,101540.34
2023-05-08T11:47:46.542Z,101536.03
2023-05-08T11:50:53.236Z,101533.06
2023-05-08T11:54:00.253Z,101525.31
2023-05-08T11:57:06.028Z,101520.19
2023-05-08T12:00:13.104Z,101512.91
2023-05-08T12:03:22.450Z,101510.50
2023-05-08T12:06:29.342Z,101505.91
2023-05-08T12:09:37.302Z,101508.13
2023-05-08T12:12:44.162Z,101511.06
2023-05-08T12:15:56.286Z,101510.53
2023-05-08T12:19:02.330Z,101517.06
2023-05-08T12:22:09.309Z,101517.88
2023-05-08T12:25:14.728Z,101520.88
2023-05-08T12:28:20.761Z,101520.88
2023-05-08T12:31:27.247Z,101514.91
2023-05-08T12:34:32.858Z,101515.19
2023-05-08T12:37:39.057Z,101513.88
2023-05-08T12:40:46.859Z,101516.84
2023-05-08T12:43:52.511Z,101523.88
2023-05-08T12:46:58.736Z,101521.47
2023-05-08T12:50:04.690Z,101518.19
2023-05-08T12:53:18.552Z,101517.09
2023-05-08T12:56:24.099Z,101514.69
2023-05-08T12:59:33.395Z,101520.63
2023-05-08T13:02:47.435Z,101527.06
2023-05-08T13:05:56.909Z,101528.41
2023-05-08T13:09:02.290Z,101524.66
2023-05-08T13:12:07.812Z,101517.94
2023-05-08T13:15:14.177Z,101516.91
2023-05-08T13:18:21.866Z,101521.50
2023-05-08T13:21:28.245Z,101506.38
2023-05-08T13:24:34.263Z,101513.94
2023-05-08T13:27:39.980Z,101512.03
2023-05-08T13:30:45.299Z,101503.69
2023-05-08T13:33:51.144Z,101495.03
2023-05-08T13:36:56.466Z,101490.66
2023-05-08T13:40:02.143Z,101488.53
2023-05-08T13:43:07.858Z,101491.75
2023-05-08T13:46:13.541Z,101489.03
2023-05-08T13:49:20.058Z,101478.19
2023-05-08T13:52:26.170Z,101467.09
2023-05-08T13:55:32.276Z,101470.56
2023-05-08T13:58:37.764Z,101477.09
2023-05-08T14:01:43.850Z,101472.13
2023-05-08T14:04:49.926Z,101474.78
2023-05-08T14:07:55.267Z,101479.59
2023-05-08T14:11:00.438Z,101475.31
2023-05-08T14:14:05.925Z,101468.72
2023-05-08T14:17:11.577Z,101473.06
2023-05-08T14:20:16.788Z,101464.19
2023-05-08T14:23:22.243Z,101460.66
2023-05-08T14:26:27.822Z,101461.25
2023-05-08T14:29:34.281Z,101454.72
2023-05-08T14:32:39.736Z,101454.66
2023-05-08T14:35:46.685Z,101451.63
2023-05-08T14:38:51.975Z,101452.47
2023-05-08T14:42:18.307Z,101446.50
2023-05-08T14:45:23.367Z,101442.88
2023-05-08T14:48:28.742Z,101436.28
2023-05-08T14:51:34.447Z,101433.53
2023-05-08T14:54:40.305Z,101430.09
2023-05-08T14:57:50.132Z,101435.53
2023-05-08T15:00:56.047Z,101433.53
2023-05-08T15:04:01.956Z,101426.25
2023-05-08T15:07:07.728Z,101426.56
2023-05-08T15:10:13.125Z,101427.31
2023-05-08T15:13:18.691Z,101423.44
2023-05-08T15:16:24.235Z,101423.25
2023-05-08T15:19:29.950Z,101426.38
2023-05-08T15:22:35.444Z,101418.84
2023-05-08T15:25:41.029Z,101425.97
2023-05-08T15:28:46.558Z,101427.81
2023-05-08T15:31:52.850Z,101430.56
2023-05-08T15:34:58.576Z,101433.00
2023-05-08T15:38:06.887Z,101440.03
2023-05-08T15:41:15.170Z,101436.63
2023-05-08T15:44:20.941Z,101433.38
2023-05-08T15:47:30.009Z,101442.94
2023-05-08T15:50:35.375Z,101442.53
2023-05-08T15:53:41.002Z,101443.63
2023-05-08T15:56:46.532Z,101441.56
2023-05-08T15:59:52.028Z,101433.88
2023-05-08T16:02:57.672Z,101438.44
2023-05-08T16:06:02.902Z,101435.72
2023-05-08T16:09:09.339Z,101447.50
2023-05-08T16:12:15.033Z,101448.13
2023-05-08T16:15:20.770Z,101448.94
2023-05-08T16:18:26.343Z,101451.75
2023-05-08T16:21:32.072Z,101441.75
2023-05-08T16:24:37.827Z,101443.38
2023-05-08T16:27:43.589Z,101442.28
2023-05-08T16:30:49.060Z,101440.06
2023-05-08T16:33:54.450Z,101447.13
2023-05-08T16:37:00.259Z,101442.31
2023-05-08T16:40:08.231Z,101444.69
2023-05-08T16:43:13.858Z,101444.44
2023-05-08T16:46:29.185Z,101440.47
2023-05-08T16:49:36.814Z,101447.50
2023-05-08T16:52:42.402Z,101444.56
2023-05-08T16:55:48.093Z,101444.59
2023-05-08T16:58:53.760Z,101445.41
2023-05-08T17:01:59.505Z,101447.28
2023-05-08T17:05:05.672Z,101451.91
2023-05-08T17:08:12.079Z,101450.31
2023-05-08T17:11:17.545Z,101448.41
2023-05-08T17:14:23.162Z,101453.84
2023-05-08T17:17:28.789Z,101452.53
2023-05-08T17:20:41.235Z,101449.28
2023-05-08T17:23:47.098Z,101462.88
2023-05-08T17:26:52.305Z,101461.81
2023-05-08T17:29:57.757Z,101465.09
2023-05-08T17:33:03.998Z,101457.53
2023-05-08T17:36:10.139Z,101461.88
2023-05-08T17:39:15.972Z,101470.53
2023-05-08T17:42:21.355Z,101469.22
2023-05-08T17:45:27.739Z,101475.19
2023-05-08T17:48:34.464Z,101472.72
2023-05-08T17:51:41.649Z,101479.53
2023-05-08T17:54:47.415Z,101479.78
2023-05-08T17:57:53.808Z,101484.09
2023-05-08T18:00:59.901Z,101481.13
2023-05-08T18:04:05.864Z,101489.00
2023-05-08T18:07:11.657Z,101500.63
2023-05-08T18:10:17.155Z,101506.88
2023-05-08T18:13:22.913Z,101507.94
2023-05-08T18:16:28.797Z,101511.47
2023-05-08T18:19:34.457Z,101513.88
2023-05-08T18:22:39.904Z,101514.44
2023-05-08T18:25:45.558Z,101518.25
2023-05-08T18:28:51.287Z,101518.53
2023-05-08T18:31:57.007Z,101509.59
2023-05-08T18:35:02.837Z,101516.09
2023-05-08T18:38:08.410Z,101525.56
2023-05-08T18:41:14.575Z,101520.44
2023-05-08T18:44:20.767Z,101531.78
2023-05-08T18:47:26.314Z,101532.03
2023-05-08T18:50:32.122Z,101536.38
2023-05-08T18:53:39.060Z,101533.13
2023-05-08T18:56:44.344Z,101532.84
2023-05-08T18:59:49.950Z,101540.97
2023-05-08T19:03:01.457Z,101543.66
2023-05-08T19:06:11.695Z,101537.47
2023-05-08T19:09:19.992Z,101537.19
2023-05-08T19:12:26.341Z,101544.75
2023-05-08T19:15:32.539Z,101547.19
2023-05-08T19:18:38.102Z,101551.78
2023-05-08T19:21:43.391Z,101544.47
2023-05-08T19:24:48.782Z,101549.34
2023-05-08T19:27:53.820Z,101551.75
2023-05-08T19:30:59.472Z,101545.28
2023-05-08T19:34:05.361Z,101562.56
2023-05-08T19:37:11.518Z,101566.63
2023-05-08T19:40:17.774Z,101573.09
2023-05-08T19:43:24.070Z,101572.31
2023-05-08T19:46:30.893Z,101575.53
2023-05-08T19:49:39.080Z,101571.72
2023-05-08T19:52:50.832Z,101573.88
2023-05-08T19:56:00.126Z,101576.59
2023-05-08T19:59:07.538Z,101578.22
2023-05-08T20:02:18.051Z,101589.56
2023-05-08T20:05:25.427Z,101591.69
2023-05-08T20:08:34.593Z,101597.09
2023-05-08T20:11:41.486Z,101598.41
2023-05-08T20:14:47.483Z,101593.25
2023-05-08T20:17:56.006Z,101592.44
2023-05-08T20:21:03.244Z,101601.91
2023-05-08T20:24:09.375Z,101598.13
2023-05-08T20:27:16.965Z,101599.19
2023-05-08T20:30:24.674Z,101594.03
2023-05-08T20:33:30.897Z,101588.38
2023-05-08T20:36:36.792Z,101593.25
2023-05-08T20:39:43.746Z,101594.56
2023-05-08T20:42:49.307Z,101590.50
2023-05-08T20:45:55.407Z,101591.56
2023-05-08T20:49:02.768Z,101588.88
2023-05-08T20:52:08.770Z,101588.34
2023-05-08T20:55:15.127Z,101586.72
2023-05-08T20:58:21.567Z,101572.94
2023-05-08T21:01:27.806Z,101580.22
2023-05-08T21:04:33.551Z,101577.25
2023-05-08T21:07:39.558Z,101570.19
2023-05-08T21:10:45.233Z,101573.69
2023-05-08T21:13:51.181Z,101576.97
2023-05-08T21:16:57.877Z,101580.47
2023-05-08T21:20:03.478Z,101576.38
2023-05-08T21:23:09.066Z,101565.56
2023-05-08T21:26:14.861Z,101567.75
2023-05-08T21:29:20.448Z,101580.69
2023-05-08T21:32:26.476Z,101572.31
2023-05-08T21:35:32.105Z,101573.38
2023-05-08T21:38:37.615Z,101572.31
2023-05-08T21:41:44.103Z,101569.03
2023-05-08T21:44:49.607Z,101576.28
2023-05-08T21:47:55.236Z,101570.38
2023-05-08T21:51:01.664Z,101573.59
2023-05-08T21:54:07.788Z,101561.94
2023-05-08T21:57:13.436Z,101566.25
2023-05-08T22:00:22.190Z,101567.00
2023-05-08T22:03:28.317Z,101567.53
2023-05-08T22:06:34.107Z,101556.16
2023-05-08T22:09:39.422Z,101565.81
2023-05-08T22:12:44.969Z,101570.16
2023-05-08T22:15:50.663Z,101564.50
2023-05-08T22:18:56.247Z,101567.47
2023-05-08T22:22:01.947Z,101576.59
2023-05-08T22:25:08.988Z,101574.97
2023-05-08T22:28:15.008Z,101573.06
2023-05-08T22:31:21.385Z,101574.66
2023-05-08T22:34:27.127Z,101580.06
2023-05-08T22:37:33.232Z,101566.13
2023-05-08T22:40:39.159Z,101578.09
2023-05-08T22:43:45.118Z,101577.13
2023-05-08T22:46:50.899Z,101580.28
2023-05-08T22:49:56.742Z,101577.63
2023-05-08T22:53:08.185Z,101572.75
2023-05-08T22:56:13.753Z,101574.34
2023-05-08T22:59:19.357Z,101571.59
2023-05-08T23:02:25.040Z,101576.47
2023-05-08T23:05:30.854Z,101577.25
2023-05-08T23:08:37.222Z,101573.72
2023-05-08T23:11:43.196Z,101571.50
2023-05-08T23:14:49.035Z,101565.78
2023-05-08T23:17:54.954Z,101566.09
2023-05-08T23:21:09.268Z,101559.28
2023-05-08T23:24:15.143Z,101559.59
2023-05-08T23:27:21.601Z,101560.91
2023-05-08T23:30:27.306Z,101555.22
2023-05-08T23:33:32.869Z,101556.25
2023-05-08T23:36:38.164Z,101550.97
2023-05-08T23:39:43.852Z,101558.59
2023-05-08T23:42:49.473Z,101550.78
2023-05-08T23:45:55.664Z,101548.31
2023-05-08T23:49:01.500Z,101556.47
2023-05-08T23:52:07.335Z,101548.31
2023-05-08T23:55:13.551Z,101531.84
2023-05-08T23:58:20.293Z,101537.97
